Time;durP1;ratioP1;P1;durP2;ratioP2;P2;SDS_P1;SDS_P2;PMS_P1;PMS_P2;Temp;Humidity;BMP_temperature;BMP_pressure;BME280_temperature;BME280_humidity;BME280_pressure;Samples;Min_cycle;Max_cycle;Signal;HPM_P1;HPM_P2
2022/10/15 00:01:11;;;;;;;3.10;1.50;;;;;;;;;;5011832;28;20030;-43
2022/10/15 00:03:38;;;;;;;4.38;1.23;;;;;;;;;;5010545;28;20046;-43
2022/10/15 00:06:06;;;;;;;1.10;0.95;;;;;;;;;;5010453;28;20475;-42
2022/10/15 00:08:32;;;;;;;2.67;1.40;;;;;;;;;;5008920;28;20121;-46
2022/10/15 00:11:06;;;;;;;6.05;1.60;;;;;;;;;;5009088;28;20125;-44
2022/10/15 00:13:32;;;;;;;1.52;1.00;;;;;;;;;;5007180;28;20123;-44
2022/10/15 00:15:57;;;;;;;1.85;1.20;;;;;;;;;;5010518;28;20041;-44
2022/10/15 00:18:22;;;;;;;1.50;1.27;;;;;;;;;;5010740;28;20038;-43
2022/10/15 00:20:48;;;;;;;5.05;1.38;;;;;;;;;;5011051;28;20475;-44
2022/10/15 00:23:13;;;;;;;2.00;1.30;;;;;;;;;;5011151;28;20033;-46
2022/10/15 00:25:41;;;;;;;1.92;1.35;;;;;;;;;;5009751;28;20022;-42
2022/10/15 00:28:06;;;;;;;2.25;1.27;;;;;;;;;;5012358;28;20049;-42
2022/10/15 00:30:31;;;;;;;1.48;1.13;;;;;;;;;;5010318;28;20037;-48
2022/10/15 00:32:57;;;;;;;2.88;1.83;;;;;;;;;;5010728;28;20034;-43
2022/10/15 00:35:22;;;;;;;3.90;1.55;;;;;;;;;;5011238;28;20045;-45
2022/10/15 00:37:47;;;;;;;2.63;1.38;;;;;;;;;;5009700;28;20048;-44
2022/10/15 00:40:16;;;;;;;9.80;1.42;;;;;;;;;;5009056;28;20037;-43
2022/10/15 00:42:41;;;;;;;1.48;1.38;;;;;;;;;;5007665;28;20038;-45
2022/10/15 00:45:14;;;;;;;5.57;1.52;;;;;;;;;;5011446;28;20053;-44
2022/10/15 00:47:43;;;;;;;2.85;1.38;;;;;;;;;;5010855;28;20053;-44
2022/10/15 00:50:14;;;;;;;4.03;1.30;;;;;;;;;;5008189;28;20137;-43
2022/10/15 00:53:07;;;;;;;3.35;1.63;;;;;;;;;;5009060;28;20046;-46
2022/10/15 00:55:39;;;;;;;2.67;1.60;;;;;;;;;;5009916;28;20502;-43
2022/10/15 00:58:09;;;;;;;2.22;1.48;;;;;;;;;;5008192;28;20053;-43
2022/10/15 01:00:34;;;;;;;2.38;1.50;;;;;;;;;;5006894;28;20506;-42
2022/10/15 01:03:00;;;;;;;1.50;1.40;;;;;;;;;;5010020;28;20041;-46
2022/10/15 01:05:25;;;;;;;2.97;1.30;;;;;;;;;;5010421;28;20029;-43
2022/10/15 01:07:51;;;;;;;1.58;1.48;;;;;;;;;;5007626;28;20045;-46
2022/10/15 01:10:18;;;;;;;2.63;1.52;;;;;;;;;;5008448;28;20026;-44
2022/10/15 01:12:43;;;;;;;1.40;1.30;;;;;;;;;;5011369;28;20088;-42
2022/10/15 01:15:18;;;;;;;3.03;1.60;;;;;;;;;;5009555;28;20032;-42
2022/10/15 01:17:46;;;;;;;2.42;1.50;;;;;;;;;;5007998;28;20498;-45
2022/10/15 01:20:17;;;;;;;1.63;1.27;;;;;;;;;;5007178;28;20060;-43
2022/10/15 01:23:05;;;;;;;1.75;1.40;;;;;;;;;;5005678;28;20053;-42
2022/10/15 01:25:56;;;;;;;3.45;1.45;;;;;;;;;;5004261;28;20029;-41
2022/10/15 01:28:59;;;;;;;1.90;1.48;;;;;;;;;;4947280;28;20043;-41
2022/10/15 01:31:46;;;;;;;2.22;1.70;;;;;;;;;;4949473;28;20542;-42
2022/10/15 01:34:33;;;;;;;3.25;1.48;;;;;;;;;;4946905;28;20063;-41
2022/10/15 01:37:10;;;;;;;2.45;1.40;;;;;;;;;;4948505;28;20571;-47
2022/10/15 01:39:43;;;;;;;2.53;1.38;;;;;;;;;;4964580;28;20113;-42
2022/10/15 01:42:23;;;;;;;3.53;1.50;;;;;;;;;;4948115;28;20043;-41
2022/10/15 01:44:53;;;;;;;2.97;1.67;;;;;;;;;;4948902;28;20039;-47
2022/10/15 01:47:24;;;;;;;2.80;1.50;;;;;;;;;;4945320;28;20038;-43
2022/10/15 01:49:52;;;;;;;2.55;1.67;;;;;;;;;;4946609;28;20034;-49
2022/10/15 01:52:26;;;;;;;3.05;1.42;;;;;;;;;;4948542;28;20039;-43
2022/10/15 01:54:52;;;;;;;5.10;1.45;;;;;;;;;;4947965;28;20047;-46
2022/10/15 01:57:20;;;;;;;2.17;1.35;;;;;;;;;;4948685;28;20135;-43
2022/10/15 01:59:45;;;;;;;1.77;1.55;;;;;;;;;;4950016;28;20563;-46
2022/10/15 02:02:11;;;;;;;2.85;1.73;;;;;;;;;;4948573;28;20145;-42
2022/10/15 02:04:37;;;;;;;3.13;1.40;;;;;;;;;;4959605;28;20033;-43
2022/10/15 02:07:08;;;;;;;6.68;1.83;;;;;;;;;;5007589;28;20045;-44
2022/10/15 02:09:55;;;;;;;3.83;2.00;;;;;;;;;;5019444;28;20033;-43
2022/10/15 02:12:45;;;;;;;3.85;1.75;;;;;;;;;;5008187;28;20649;-44
2022/10/15 02:15:17;;;;;;;1.60;1.50;;;;;;;;;;5008456;28;20086;-43
2022/10/15 02:18:04;;;;;;;3.78;2.03;;;;;;;;;;5008796;28;20088;-44
2022/10/15 02:21:09;;;;;;;3.13;2.22;;;;;;;;;;5006765;28;20093;-45
2022/10/15 02:23:44;;;;;;;3.05;2.70;;;;;;;;;;5004210;28;20072;-42
2022/10/15 02:26:11;;;;;;;2.90;1.70;;;;;;;;;;5008137;28;20030;-45
2022/10/15 02:28:40;;;;;;;2.90;1.73;;;;;;;;;;5008949;28;20510;-44
2022/10/15 02:31:08;;;;;;;2.30;1.70;;;;;;;;;;5009098;28;20490;-47
2022/10/15 02:33:35;;;;;;;3.42;2.08;;;;;;;;;;5006938;28;20046;-45
2022/10/15 02:36:01;;;;;;;2.65;2.05;;;;;;;;;;5004715;28;20479;-44
2022/10/15 02:38:30;;;;;;;2.03;1.60;;;;;;;;;;5007316;28;20092;-42
2022/10/15 02:40:56;;;;;;;2.78;1.80;;;;;;;;;;5006650;28;20553;-42
2022/10/15 02:43:21;;;;;;;1.70;1.60;;;;;;;;;;5008751;28;20034;-45
2022/10/15 02:45:48;;;;;;;2.88;1.85;;;;;;;;;;5006261;28;20029;-45
2022/10/15 02:48:13;;;;;;;2.42;1.65;;;;;;;;;;5008094;28;20125;-43
2022/10/15 02:50:39;;;;;;;1.80;1.70;;;;;;;;;;5007467;28;20105;-45
2022/10/15 02:53:04;;;;;;;3.83;1.70;;;;;;;;;;5008141;28;20096;-47
2022/10/15 02:55:30;;;;;;;3.88;1.90;;;;;;;;;;5009309;28;20088;-44
2022/10/15 02:57:55;;;;;;;4.47;1.80;;;;;;;;;;5007293;28;20398;-43
2022/10/15 03:00:21;;;;;;;1.65;1.52;;;;;;;;;;5007187;28;20025;-45
2022/10/15 03:02:46;;;;;;;2.17;1.70;;;;;;;;;;5008446;28;20037;-47
2022/10/15 03:05:12;;;;;;;1.98;1.85;;;;;;;;;;5007778;28;20383;-42
2022/10/15 03:07:37;;;;;;;2.03;1.75;;;;;;;;;;5007355;28;20030;-45
2022/10/15 03:10:04;;;;;;;1.67;1.35;;;;;;;;;;5010263;28;20030;-43
2022/10/15 03:12:29;;;;;;;2.55;1.60;;;;;;;;;;5009049;28;20038;-43
2022/10/15 03:14:54;;;;;;;2.22;1.67;;;;;;;;;;5006996;28;20022;-46
2022/10/15 03:17:20;;;;;;;4.88;1.80;;;;;;;;;;5007259;28;20038;-44
2022/10/15 03:19:45;;;;;;;7.38;1.85;;;;;;;;;;5004086;28;20049;-46
2022/10/15 03:22:10;;;;;;;4.45;2.08;;;;;;;;;;5006786;28;20056;-43
2022/10/15 03:24:36;;;;;;;2.65;1.73;;;;;;;;;;5010575;28;20064;-44
2022/10/15 03:27:01;;;;;;;2.22;1.88;;;;;;;;;;5011438;28;20042;-45
2022/10/15 03:29:27;;;;;;;2.70;1.77;;;;;;;;;;5010404;28;20030;-43
2022/10/15 03:31:52;;;;;;;1.95;1.65;;;;;;;;;;5009397;28;20493;-42
2022/10/15 03:34:17;;;;;;;2.25;1.55;;;;;;;;;;5013777;28;20025;-42
2022/10/15 03:36:43;;;;;;;2.50;1.70;;;;;;;;;;5012403;28;20613;-44
2022/10/15 03:39:10;;;;;;;2.97;1.75;;;;;;;;;;5010858;28;20038;-42
2022/10/15 03:41:36;;;;;;;2.40;1.65;;;;;;;;;;5009482;28;20061;-42
2022/10/15 03:44:03;;;;;;;2.83;1.85;;;;;;;;;;5012056;28;20053;-43
2022/10/15 03:46:29;;;;;;;2.08;1.60;;;;;;;;;;5010140;28;20028;-43
2022/10/15 03:48:54;;;;;;;2.95;1.85;;;;;;;;;;5010432;28;20390;-43
2022/10/15 03:51:20;;;;;;;1.50;1.40;;;;;;;;;;5010322;28;20164;-45
2022/10/15 03:53:45;;;;;;;2.65;1.70;;;;;;;;;;5011040;28;20038;-41
2022/10/15 03:56:11;;;;;;;2.15;1.60;;;;;;;;;;5010712;28;20049;-46
2022/10/15 03:58:36;;;;;;;2.90;1.80;;;;;;;;;;5010444;28;20168;-42
2022/10/15 04:01:10;;;;;;;6.68;2.00;;;;;;;;;;5011203;28;20500;-42
2022/10/15 04:03:36;;;;;;;5.57;2.13;;;;;;;;;;5009952;28;20045;-42
2022/10/15 04:06:01;;;;;;;2.72;1.80;;;;;;;;;;5009297;28;20018;-42
2022/10/15 04:08:27;;;;;;;3.55;1.58;;;;;;;;;;5011209;28;20486;-42
2022/10/15 04:10:53;;;;;;;2.53;1.60;;;;;;;;;;5011144;28;20029;-42
2022/10/15 04:13:18;;;;;;;1.90;1.67;;;;;;;;;;5010464;28;20042;-42
2022/10/15 04:15:44;;;;;;;4.50;2.00;;;;;;;;;;5009769;28;20033;-42
2022/10/15 04:18:10;;;;;;;3.53;1.92;;;;;;;;;;5010815;28;20049;-42
2022/10/15 04:20:35;;;;;;;3.28;1.50;;;;;;;;;;5010262;28;20061;-42
2022/10/15 04:23:01;;;;;;;4.65;2.25;;;;;;;;;;5009572;28;20136;-44
2022/10/15 04:25:26;;;;;;;3.08;2.38;;;;;;;;;;5008655;28;20124;-42
2022/10/15 04:27:52;;;;;;;2.00;1.80;;;;;;;;;;5005532;28;20422;-43
2022/10/15 04:30:18;;;;;;;2.65;1.67;;;;;;;;;;5010374;28;20069;-42
2022/10/15 04:32:43;;;;;;;5.63;2.08;;;;;;;;;;5009938;28;20046;-42
2022/10/15 04:35:08;;;;;;;3.85;2.10;;;;;;;;;;5012296;28;20045;-45
2022/10/15 04:37:34;;;;;;;2.83;1.95;;;;;;;;;;5008679;28;20056;-51
2022/10/15 04:40:00;;;;;;;5.28;2.03;;;;;;;;;;5008308;28;20371;-44
2022/10/15 04:42:27;;;;;;;3.50;2.45;;;;;;;;;;5009412;28;20041;-41
2022/10/15 04:44:53;;;;;;;3.80;2.00;;;;;;;;;;5010304;28;20034;-43
2022/10/15 04:47:18;;;;;;;2.83;2.10;;;;;;;;;;5009363;28;20172;-42
2022/10/15 04:49:43;;;;;;;2.90;2.22;;;;;;;;;;5011794;28;20026;-43
2022/10/15 04:52:09;;;;;;;4.45;2.72;;;;;;;;;;5008280;28;20683;-43
2022/10/15 04:54:34;;;;;;;4.70;2.20;;;;;;;;;;5007118;28;20030;-42
2022/10/15 04:56:59;;;;;;;2.85;1.75;;;;;;;;;;5009985;28;20089;-43
2022/10/15 04:59:25;;;;;;;2.00;1.80;;;;;;;;;;5010896;28;20030;-43
2022/10/15 05:01:50;;;;;;;3.67;2.00;;;;;;;;;;5009804;28;20046;-43
2022/10/15 05:04:16;;;;;;;4.55;2.63;;;;;;;;;;5011023;28;20538;-44
2022/10/15 05:06:41;;;;;;;5.18;2.15;;;;;;;;;;5006208;28;20103;-42
2022/10/15 05:09:07;;;;;;;2.45;1.90;;;;;;;;;;5010616;28;20037;-43
2022/10/15 05:11:35;;;;;;;5.03;2.45;;;;;;;;;;5007389;28;20387;-44
2022/10/15 05:14:00;;;;;;;5.60;2.13;;;;;;;;;;5009529;28;20021;-44
2022/10/15 05:16:28;;;;;;;2.28;2.08;;;;;;;;;;5009400;28;20034;-43
2022/10/15 05:19:02;;;;;;;3.30;1.98;;;;;;;;;;5009796;28;20440;-41
2022/10/15 05:21:28;;;;;;;2.22;1.63;;;;;;;;;;5008330;28;20038;-42
2022/10/15 05:23:53;;;;;;;2.83;1.90;;;;;;;;;;5006930;28;20041;-44
2022/10/15 05:26:21;;;;;;;2.67;2.00;;;;;;;;;;5008713;28;20037;-43
2022/10/15 05:28:47;;;;;;;2.85;2.38;;;;;;;;;;5009929;28;20050;-43
2022/10/15 05:31:18;;;;;;;2.70;2.15;;;;;;;;;;5009533;28;20022;-42
2022/10/15 05:33:43;;;;;;;3.83;2.13;;;;;;;;;;5008904;28;20052;-42
2022/10/15 05:36:08;;;;;;;3.40;1.95;;;;;;;;;;5006342;28;20029;-43
2022/10/15 05:38:34;;;;;;;2.28;1.98;;;;;;;;;;5008831;28;20062;-43
2022/10/15 05:40:59;;;;;;;3.85;2.00;;;;;;;;;;5008607;28;20061;-42
2022/10/15 05:43:24;;;;;;;2.30;2.08;;;;;;;;;;5004507;28;20521;-41
2022/10/15 05:45:53;;;;;;;4.72;1.90;;;;;;;;;;5008800;28;20084;-44
2022/10/15 05:48:19;;;;;;;3.58;2.40;;;;;;;;;;5008737;28;20102;-42
2022/10/15 05:50:44;;;;;;;2.58;2.28;;;;;;;;;;5006826;28;20026;-42
2022/10/15 05:53:09;;;;;;;2.08;1.83;;;;;;;;;;5009880;28;20050;-42
2022/10/15 05:55:35;;;;;;;3.65;2.05;;;;;;;;;;5007457;28;20026;-42
2022/10/15 05:58:02;;;;;;;3.60;2.05;;;;;;;;;;5009237;28;20133;-42
2022/10/15 06:00:27;;;;;;;4.32;2.10;;;;;;;;;;5007961;28;20368;-43
2022/10/15 06:02:52;;;;;;;2.30;1.95;;;;;;;;;;5008030;28;20049;-43
2022/10/15 06:05:18;;;;;;;4.22;1.83;;;;;;;;;;5007658;28;20030;-42
2022/10/15 06:07:43;;;;;;;2.88;2.28;;;;;;;;;;5008907;28;20052;-44
2022/10/15 06:10:09;;;;;;;3.78;2.00;;;;;;;;;;5005697;28;20486;-42
2022/10/15 06:12:34;;;;;;;2.47;1.85;;;;;;;;;;5008239;28;20483;-43
2022/10/15 06:15:00;;;;;;;5.60;2.10;;;;;;;;;;5006283;28;20493;-42
2022/10/15 06:17:25;;;;;;;3.47;2.00;;;;;;;;;;5008401;28;20052;-42
2022/10/15 06:19:50;;;;;;;4.03;1.95;;;;;;;;;;5008508;28;20025;-42
2022/10/15 06:22:16;;;;;;;5.35;2.03;;;;;;;;;;5008832;28;20414;-44
2022/10/15 06:24:41;;;;;;;3.58;2.30;;;;;;;;;;5009229;28;20026;-42
2022/10/15 06:27:08;;;;;;;2.72;2.05;;;;;;;;;;5008088;28;20042;-42
2022/10/15 06:29:34;;;;;;;3.47;1.80;;;;;;;;;;5008309;28;20391;-42
2022/10/15 06:32:00;;;;;;;1.83;1.52;;;;;;;;;;5003468;28;20038;-42
2022/10/15 06:34:26;;;;;;;12.73;2.83;;;;;;;;;;5006964;28;20034;-43
2022/10/15 06:36:51;;;;;;;3.88;2.30;;;;;;;;;;5008666;28;20091;-43
2022/10/15 06:39:17;;;;;;;5.85;2.05;;;;;;;;;;5009325;28;20109;-42
2022/10/15 06:41:42;;;;;;;2.55;2.15;;;;;;;;;;5008347;28;21985;-42
2022/10/15 06:44:07;;;;;;;3.70;2.00;;;;;;;;;;5007036;28;20041;-42
2022/10/15 06:46:33;;;;;;;2.05;1.85;;;;;;;;;;5007749;28;20509;-42
2022/10/15 06:48:58;;;;;;;2.10;1.83;;;;;;;;;;5006788;28;20022;-42
2022/10/15 06:51:23;;;;;;;3.53;1.95;;;;;;;;;;5007989;28;20041;-42
2022/10/15 06:53:49;;;;;;;4.15;2.25;;;;;;;;;;5007127;28;20032;-43
2022/10/15 06:56:14;;;;;;;5.53;2.47;;;;;;;;;;5006866;28;20475;-44
2022/10/15 06:58:42;;;;;;;3.65;2.00;;;;;;;;;;5007677;28;20037;-44
2022/10/15 07:01:08;;;;;;;2.15;1.95;;;;;;;;;;5006031;28;20435;-42
2022/10/15 07:03:35;;;;;;;2.00;1.80;;;;;;;;;;5007464;28;20045;-43
2022/10/15 07:06:05;;;;;;;2.03;1.63;;;;;;;;;;5006807;28;20148;-42
2022/10/15 07:08:31;;;;;;;5.00;1.88;;;;;;;;;;5003829;28;20042;-42
2022/10/15 07:10:59;;;;;;;3.75;2.00;;;;;;;;;;5005224;28;20021;-44
2022/10/15 07:13:25;;;;;;;3.97;2.05;;;;;;;;;;5003077;28;20046;-46
2022/10/15 07:15:52;;;;;;;4.28;1.73;;;;;;;;;;5003625;28;20096;-42
2022/10/15 07:18:18;;;;;;;4.50;1.50;;;;;;;;;;5002216;28;20486;-43
2022/10/15 07:20:44;;;;;;;2.33;1.75;;;;;;;;;;5002709;28;20029;-45
2022/10/15 07:23:09;;;;;;;2.53;1.80;;;;;;;;;;5002921;28;20042;-43
2022/10/15 07:25:35;;;;;;;3.30;1.80;;;;;;;;;;5001489;28;20112;-42
2022/10/15 07:28:00;;;;;;;3.97;1.48;;;;;;;;;;4999948;28;20070;-43
2022/10/15 07:30:27;;;;;;;3.08;1.45;;;;;;;;;;4996949;28;20026;-45
2022/10/15 07:32:54;;;;;;;1.63;1.40;;;;;;;;;;4999545;28;20038;-45
2022/10/15 07:35:20;;;;;;;2.50;1.83;;;;;;;;;;4994652;28;20034;-45
2022/10/15 07:37:46;;;;;;;1.40;1.27;;;;;;;;;;5001696;28;20044;-43
2022/10/15 07:40:12;;;;;;;2.53;1.60;;;;;;;;;;5003007;28;20018;-44
2022/10/15 07:42:39;;;;;;;3.75;1.63;;;;;;;;;;5003650;28;20537;-45
2022/10/15 07:45:05;;;;;;;2.65;1.50;;;;;;;;;;4999343;28;20033;-45
2022/10/15 07:47:31;;;;;;;6.30;1.90;;;;;;;;;;4996139;28;20763;-45
2022/10/15 07:49:56;;;;;;;4.13;1.25;;;;;;;;;;4996848;28;20695;-43
2022/10/15 07:52:21;;;;;;;2.28;1.75;;;;;;;;;;4997695;28;20034;-44
2022/10/15 07:54:47;;;;;;;3.63;1.58;;;;;;;;;;5001104;28;20037;-43
2022/10/15 07:57:12;;;;;;;2.83;1.52;;;;;;;;;;4996867;28;20466;-43
2022/10/15 07:59:37;;;;;;;7.53;1.85;;;;;;;;;;4998389;28;20096;-44
2022/10/15 08:02:03;;;;;;;3.60;1.60;;;;;;;;;;5000827;28;20046;-42
2022/10/15 08:04:28;;;;;;;2.28;1.42;;;;;;;;;;4996493;28;20044;-45
2022/10/15 08:06:54;;;;;;;4.22;1.70;;;;;;;;;;4997022;28;20056;-48
2022/10/15 08:09:19;;;;;;;3.08;1.58;;;;;;;;;;4994410;28;20030;-45
2022/10/15 08:11:44;;;;;;;4.88;1.77;;;;;;;;;;5007647;28;20113;-44
2022/10/15 08:14:10;;;;;;;5.05;1.45;;;;;;;;;;5001752;28;20422;-44
2022/10/15 08:16:35;;;;;;;2.10;1.63;;;;;;;;;;5004196;28;20021;-43
2022/10/15 08:19:01;;;;;;;1.92;1.25;;;;;;;;;;5004500;28;20030;-43
2022/10/15 08:21:26;;;;;;;4.50;1.52;;;;;;;;;;5003687;28;20045;-43
2022/10/15 08:23:52;;;;;;;2.83;1.42;;;;;;;;;;4996806;28;20539;-44
2022/10/15 08:26:18;;;;;;;1.90;1.73;;;;;;;;;;5001055;28;20606;-45
2022/10/15 08:28:43;;;;;;;7.20;1.67;;;;;;;;;;5010000;28;20445;-46
2022/10/15 08:31:09;;;;;;;2.30;1.50;;;;;;;;;;4995084;28;20026;-48
2022/10/15 08:33:36;;;;;;;1.65;1.55;;;;;;;;;;4999873;28;20395;-45
2022/10/15 08:36:05;;;;;;;2.08;1.60;;;;;;;;;;5001790;28;20477;-49
2022/10/15 08:38:30;;;;;;;12.02;1.60;;;;;;;;;;4999837;28;20471;-47
2022/10/15 08:40:58;;;;;;;3.75;1.40;;;;;;;;;;4999545;28;20042;-42
2022/10/15 08:43:56;;;;;;;2.35;1.50;;;;;;;;;;5001517;28;20053;-43
2022/10/15 08:46:31;;;;;;;5.50;1.92;;;;;;;;;;4943443;28;20039;-42
2022/10/15 08:48:59;;;;;;;1.95;1.42;;;;;;;;;;4941990;28;20035;-44
2022/10/15 08:51:40;;;;;;;2.15;1.50;;;;;;;;;;4941843;28;21080;-44
2022/10/15 08:54:13;;;;;;;4.68;1.80;;;;;;;;;;4946522;28;20130;-43
2022/10/15 08:56:43;;;;;;;3.63;1.60;;;;;;;;;;4946934;28;20079;-43
2022/10/15 08:59:33;;;;;;;1.33;1.23;;;;;;;;;;4948176;28;20067;-46
2022/10/15 09:02:16;;;;;;;3.10;1.50;;;;;;;;;;4945020;28;20043;-46
2022/10/15 09:05:00;;;;;;;1.75;1.63;;;;;;;;;;4942198;28;20027;-44
2022/10/15 09:07:47;;;;;;;5.57;1.92;;;;;;;;;;4939959;28;20051;-43
2022/10/15 09:10:22;;;;;;;1.65;1.38;;;;;;;;;;4947025;28;20079;-43
2022/10/15 09:12:52;;;;;;;2.83;1.23;;;;;;;;;;4941296;28;20826;-44
2022/10/15 09:15:19;;;;;;;3.20;1.33;;;;;;;;;;4944450;28;20051;-45
2022/10/15 09:17:48;;;;;;;4.07;1.33;;;;;;;;;;4944237;28;20095;-43
2022/10/15 09:20:29;;;;;;;1.85;1.40;;;;;;;;;;4942351;28;20035;-44
2022/10/15 09:22:55;;;;;;;4.65;1.40;;;;;;;;;;4993993;28;20042;-45
2022/10/15 09:25:23;;;;;;;4.35;1.00;;;;;;;;;;5007870;28;20080;-43
2022/10/15 09:27:50;;;;;;;3.33;1.02;;;;;;;;;;5004044;28;20651;-46
2022/10/15 09:30:41;;;;;;;1.33;1.23;;;;;;;;;;5003179;28;20034;-46
2022/10/15 09:33:24;;;;;;;2.25;1.10;;;;;;;;;;5004153;28;20411;-43
2022/10/15 09:36:02;;;;;;;2.90;1.27;;;;;;;;;;5008506;28;20033;-46
2022/10/15 09:39:06;;;;;;;3.92;1.58;;;;;;;;;;5007429;28;20042;-48
2022/10/15 09:41:59;;;;;;;3.33;1.58;;;;;;;;;;5006032;28;20049;-43
2022/10/15 09:44:37;;;;;;;2.95;1.30;;;;;;;;;;5004889;28;20490;-46
2022/10/15 09:47:14;;;;;;;2.88;1.20;;;;;;;;;;5009607;28;20045;-45
2022/10/15 09:49:41;;;;;;;2.47;1.35;;;;;;;;;;5010237;28;20037;-45
2022/10/15 09:52:17;;;;;;;1.40;1.30;;;;;;;;;;5003827;28;20147;-49
2022/10/15 09:55:08;;;;;;;8.32;1.30;;;;;;;;;;5007406;28;20076;-44
2022/10/15 09:57:36;;;;;;;6.43;1.60;;;;;;;;;;5003240;28;20561;-44
2022/10/15 10:00:07;;;;;;;5.07;1.10;;;;;;;;;;5008466;28;20108;-47
2022/10/15 10:02:32;;;;;;;2.53;1.10;;;;;;;;;;5007436;28;20121;-47
2022/10/15 10:05:19;;;;;;;1.80;1.10;;;;;;;;;;5009503;28;20121;-48
2022/10/15 10:07:44;;;;;;;1.70;0.93;;;;;;;;;;5007203;28;20092;-43
2022/10/15 10:10:25;;;;;;;0.80;0.80;;;;;;;;;;5009746;28;20462;-47
2022/10/15 10:12:51;;;;;;;1.13;0.95;;;;;;;;;;5007476;28;20521;-48
2022/10/15 10:15:35;;;;;;;3.33;1.13;;;;;;;;;;5007139;28;20034;-44
2022/10/15 10:18:06;;;;;;;1.55;1.10;;;;;;;;;;5004970;28;20042;-44
2022/10/15 10:20:33;;;;;;;1.50;1.38;;;;;;;;;;5005684;28;20033;-42
2022/10/15 10:23:01;;;;;;;2.47;1.40;;;;;;;;;;5006811;28;20104;-45
2022/10/15 10:25:41;;;;;;;1.55;1.30;;;;;;;;;;5008231;28;20064;-43
2022/10/15 10:28:10;;;;;;;2.58;1.60;;;;;;;;;;5006247;28;20042;-43
2022/10/15 10:30:55;;;;;;;1.80;1.40;;;;;;;;;;5008997;28;20567;-43
2022/10/15 10:33:33;;;;;;;4.78;1.83;;;;;;;;;;5007492;28;20034;-44
2022/10/15 10:35:59;;;;;;;2.30;2.08;;;;;;;;;;5007957;28;20038;-43
2022/10/15 10:38:29;;;;;;;5.43;2.38;;;;;;;;;;5007462;28;20049;-43
2022/10/15 10:40:59;;;;;;;3.22;1.80;;;;;;;;;;5008601;28;20507;-42
2022/10/15 10:43:27;;;;;;;4.85;1.90;;;;;;;;;;5005919;28;20034;-44
2022/10/15 10:45:56;;;;;;;2.22;2.05;;;;;;;;;;5008239;28;20030;-45
2022/10/15 10:48:26;;;;;;;5.43;2.17;;;;;;;;;;5008200;28;21131;-48
2022/10/15 10:51:06;;;;;;;7.03;1.60;;;;;;;;;;5007874;28;20041;-45
2022/10/15 10:53:35;;;;;;;4.07;2.35;;;;;;;;;;5004788;28;20141;-43
2022/10/15 10:56:03;;;;;;;5.85;3.38;;;;;;;;;;5006337;28;20033;-50
2022/10/15 10:58:32;;;;;;;5.00;3.25;;;;;;;;;;5003128;28;20440;-47
2022/10/15 11:00:57;;;;;;;3.38;2.25;;;;;;;;;;5007277;28;20057;-44
2022/10/15 11:03:37;;;;;;;5.18;2.10;;;;;;;;;;5005392;28;20541;-44
2022/10/15 11:06:11;;;;;;;4.05;1.95;;;;;;;;;;5004757;28;20681;-44
2022/10/15 11:08:51;;;;;;;4.65;1.70;;;;;;;;;;5007505;28;20091;-44
2022/10/15 11:11:42;;;;;;;3.45;1.90;;;;;;;;;;5008433;28;20026;-45
2022/10/15 11:14:20;;;;;;;5.55;2.00;;;;;;;;;;5008154;28;20108;-49
2022/10/15 11:16:54;;;;;;;4.43;1.80;;;;;;;;;;5004107;28;20042;-44
2022/10/15 11:19:28;;;;;;;3.53;1.98;;;;;;;;;;5002281;28;20030;-46
2022/10/15 11:22:12;;;;;;;2.17;1.75;;;;;;;;;;5005755;28;20046;-43
2022/10/15 11:25:00;;;;;;;4.93;1.90;;;;;;;;;;5003895;28;20029;-47
2022/10/15 11:27:47;;;;;;;1.73;1.63;;;;;;;;;;5004873;28;20502;-44
2022/10/15 11:30:46;;;;;;;2.10;1.48;;;;;;;;;;5001517;28;20494;-46
2022/10/15 11:33:25;;;;;;;3.67;1.90;;;;;;;;;;5000611;28;20626;-47
2022/10/15 11:36:19;;;;;;;4.00;1.80;;;;;;;;;;5001592;28;20482;-45
2022/10/15 11:39:02;;;;;;;5.38;1.67;;;;;;;;;;5034512;28;20042;-46
2022/10/15 11:41:36;;;;;;;3.45;2.25;;;;;;;;;;5003493;28;20076;-46
2022/10/15 11:44:10;;;;;;;2.78;1.90;;;;;;;;;;5005106;28;20936;-47
2022/10/15 11:46:49;;;;;;;1.65;1.55;;;;;;;;;;5004799;28;20367;-43
2022/10/15 11:49:38;;;;;;;2.83;1.65;;;;;;;;;;5010313;28;20029;-43
2022/10/15 11:52:32;;;;;;;4.07;2.17;;;;;;;;;;5020625;28;20054;-45
2022/10/15 11:55:02;;;;;;;3.05;1.80;;;;;;;;;;5004968;28;20026;-43
2022/10/15 11:57:31;;;;;;;2.05;1.55;;;;;;;;;;5007220;28;20065;-44
2022/10/15 12:00:04;;;;;;;1.50;1.40;;;;;;;;;;5004892;28;20049;-47
2022/10/15 12:02:34;;;;;;;1.80;1.20;;;;;;;;;;5002044;28;20085;-44
2022/10/15 12:05:05;;;;;;;1.42;1.30;;;;;;;;;;5005920;28;20478;-44
2022/10/15 12:07:39;;;;;;;1.65;1.30;;;;;;;;;;5002342;28;20100;-45
2022/10/15 12:10:11;;;;;;;1.15;1.00;;;;;;;;;;5003330;28;21077;-47
2022/10/15 12:12:46;;;;;;;2.63;0.98;;;;;;;;;;5004291;28;20053;-44
2022/10/15 12:15:44;;;;;;;1.25;0.90;;;;;;;;;;5005886;28;20036;-47
2022/10/15 12:18:33;;;;;;;1.90;1.25;;;;;;;;;;5001353;28;20050;-46
2022/10/15 12:20:58;;;;;;;1.65;0.82;;;;;;;;;;5010509;28;20088;-47
2022/10/15 12:23:35;;;;;;;0.95;0.93;;;;;;;;;;5010801;28;20042;-46
2022/10/15 12:26:01;;;;;;;1.52;0.70;;;;;;;;;;5009562;28;20072;-45
2022/10/15 12:28:30;;;;;;;1.65;1.55;;;;;;;;;;5002480;28;20058;-43
2022/10/15 12:30:57;;;;;;;1.30;0.90;;;;;;;;;;5002277;28;20050;-44
2022/10/15 12:33:31;;;;;;;1.55;1.25;;;;;;;;;;5008420;28;20033;-43
2022/10/15 12:36:04;;;;;;;2.30;1.52;;;;;;;;;;5011056;28;20038;-47
2022/10/15 12:38:33;;;;;;;2.90;1.40;;;;;;;;;;5010782;28;20037;-47
2022/10/15 12:41:06;;;;;;;3.60;0.93;;;;;;;;;;5008371;28;20050;-44
2022/10/15 12:43:35;;;;;;;2.47;1.25;;;;;;;;;;5008770;28;20041;-45
2022/10/15 12:46:03;;;;;;;1.48;1.20;;;;;;;;;;5010299;28;20032;-44
2022/10/15 12:48:36;;;;;;;2.00;1.33;;;;;;;;;;5010381;28;20030;-46
2022/10/15 12:51:20;;;;;;;4.15;1.40;;;;;;;;;;5007608;28;20022;-48
2022/10/15 12:53:47;;;;;;;1.45;1.35;;;;;;;;;;5010178;28;20038;-45
2022/10/15 12:56:22;;;;;;;1.55;1.40;;;;;;;;;;5006560;28;20033;-43
2022/10/15 12:58:53;;;;;;;3.13;1.60;;;;;;;;;;5009466;28;20173;-44
2022/10/15 13:01:19;;;;;;;3.67;1.80;;;;;;;;;;5008074;28;20509;-47
2022/10/15 13:03:47;;;;;;;5.65;1.80;;;;;;;;;;5002787;28;20089;-45
2022/10/15 13:06:24;;;;;;;2.75;1.67;;;;;;;;;;5005329;28;20441;-44
2022/10/15 13:09:22;;;;;;;8.38;2.03;;;;;;;;;;5006022;28;20137;-43
2022/10/15 13:11:50;;;;;;;2.10;1.63;;;;;;;;;;5007555;28;20108;-43
2022/10/15 13:14:25;;;;;;;3.00;1.85;;;;;;;;;;5005083;28;20112;-42
2022/10/15 13:16:50;;;;;;;4.80;1.85;;;;;;;;;;5006086;28;20507;-45
2022/10/15 13:19:18;;;;;;;2.30;1.67;;;;;;;;;;5003774;28;20097;-45
2022/10/15 13:21:49;;;;;;;1.55;1.45;;;;;;;;;;5008207;28;20437;-45
2022/10/15 13:24:18;;;;;;;1.65;1.23;;;;;;;;;;5003393;28;20549;-49
2022/10/15 13:26:43;;;;;;;5.85;2.00;;;;;;;;;;5002367;28;20086;-43
2022/10/15 13:29:26;;;;;;;1.90;1.50;;;;;;;;;;4998968;28;20026;-44
2022/10/15 13:31:55;;;;;;;3.05;1.83;;;;;;;;;;5004278;28;20431;-46
2022/10/15 13:34:31;;;;;;;5.03;2.50;;;;;;;;;;5004003;28;20068;-44
2022/10/15 13:37:00;;;;;;;2.30;2.10;;;;;;;;;;5005668;28;20376;-44
2022/10/15 13:39:32;;;;;;;3.67;1.95;;;;;;;;;;5009481;28;20502;-43
2022/10/15 13:42:08;;;;;;;6.63;1.92;;;;;;;;;;5004989;28;20042;-46
2022/10/15 13:44:34;;;;;;;2.22;1.85;;;;;;;;;;5006762;28;20026;-43
2022/10/15 13:47:00;;;;;;;2.53;2.08;;;;;;;;;;5008542;28;20491;-47
2022/10/15 13:49:25;;;;;;;1.95;1.83;;;;;;;;;;5009349;28;20040;-45
2022/10/15 13:51:52;;;;;;;2.97;2.40;;;;;;;;;;5009638;28;20041;-46
2022/10/15 13:54:23;;;;;;;5.88;2.40;;;;;;;;;;5007488;28;21761;-45
2022/10/15 13:56:56;;;;;;;3.65;2.30;;;;;;;;;;5007178;28;20052;-45
2022/10/15 13:59:23;;;;;;;5.07;2.60;;;;;;;;;;5006270;28;20057;-46
2022/10/15 14:01:54;;;;;;;6.43;2.33;;;;;;;;;;5008126;28;20062;-45
2022/10/15 14:04:23;;;;;;;7.38;2.45;;;;;;;;;;5007610;28;20068;-43
2022/10/15 14:07:00;;;;;;;5.47;2.40;;;;;;;;;;5008271;28;20549;-43
2022/10/15 14:09:29;;;;;;;3.72;2.50;;;;;;;;;;5008752;28;20148;-45
2022/10/15 14:11:55;;;;;;;11.93;3.25;;;;;;;;;;5008295;28;20048;-44
2022/10/15 14:14:35;;;;;;;9.10;3.35;;;;;;;;;;5006563;28;20038;-42
2022/10/15 14:17:04;;;;;;;8.05;4.88;;;;;;;;;;5006480;28;20046;-45
2022/10/15 14:19:31;;;;;;;6.97;4.15;;;;;;;;;;5009262;28;20029;-43
2022/10/15 14:21:57;;;;;;;6.70;2.80;;;;;;;;;;5009104;28;20042;-43
2022/10/15 14:24:37;;;;;;;7.55;2.63;;;;;;;;;;5008619;28;20368;-43
2022/10/15 14:27:17;;;;;;;4.00;2.20;;;;;;;;;;5009912;28;20037;-44
2022/10/15 14:29:47;;;;;;;2.60;1.52;;;;;;;;;;5004346;28;20105;-44
2022/10/15 14:32:42;;;;;;;4.43;2.22;;;;;;;;;;5005355;28;20401;-43
2022/10/15 14:35:28;;;;;;;2.92;1.88;;;;;;;;;;5006991;28;20046;-44
2022/10/15 14:38:02;;;;;;;2.33;1.70;;;;;;;;;;5007851;28;20537;-44
2022/10/15 14:40:28;;;;;;;3.40;2.00;;;;;;;;;;5003671;28;20042;-44
2022/10/15 14:42:53;;;;;;;5.05;2.28;;;;;;;;;;5008245;28;20042;-45
2022/10/15 14:45:27;;;;;;;4.22;1.60;;;;;;;;;;5009253;28;20045;-43
2022/10/15 14:48:06;;;;;;;9.68;2.45;;;;;;;;;;5006640;28;20604;-43
2022/10/15 14:50:34;;;;;;;6.85;2.38;;;;;;;;;;5006725;28;20052;-46
2022/10/15 14:53:04;;;;;;;5.93;2.00;;;;;;;;;;5007469;28;20125;-45
2022/10/15 14:55:36;;;;;;;4.25;1.85;;;;;;;;;;5006286;28;20041;-43
2022/10/15 14:58:08;;;;;;;3.17;2.10;;;;;;;;;;5003327;28;20563;-46
2022/10/15 15:00:43;;;;;;;6.50;2.05;;;;;;;;;;5005521;28;20052;-46
2022/10/15 15:03:20;;;;;;;5.18;2.00;;;;;;;;;;5006435;28;20042;-42